createdAt,value
2019-01-21T00:00:34.295Z,56.33
2019-01-21T00:03:04.545Z,58.75
2019-01-21T00:05:32.139Z,56.37
2019-01-21T00:07:59.896Z,65.57
2019-01-21T00:10:27.503Z,60.05
2019-01-21T00:12:55.194Z,65.62
2019-01-21T00:15:22.982Z,65.15
2019-01-21T00:17:50.568Z,61.83
2019-01-21T00:20:18.172Z,60.25
2019-01-21T00:22:45.696Z,57.85
2019-01-21T00:25:13.278Z,61.35
2019-01-21T00:27:40.928Z,60.12
2019-01-21T00:30:08.419Z,64.37
2019-01-21T00:32:36.003Z,61.53
2019-01-21T00:35:04.087Z,58.15
2019-01-21T00:37:31.792Z,57.62
2019-01-21T00:39:59.383Z,55.65
2019-01-21T00:42:28.071Z,59.48
2019-01-21T00:44:55.856Z,62.55
2019-01-21T00:47:29.711Z,60.43
2019-01-21T00:49:52.850Z,54.70
2019-01-21T00:52:20.407Z,58.25
2019-01-21T00:54:47.756Z,53.87
2019-01-21T00:57:15.256Z,57.95
2019-01-21T00:59:42.860Z,57.90
2019-01-21T01:02:13.261Z,62.67
2019-01-21T01:04:40.886Z,61.58
2019-01-21T01:07:08.580Z,54.95
2019-01-21T01:09:36.001Z,57.93
2019-01-21T01:12:03.421Z,60.83
2019-01-21T01:14:30.851Z,61.83
2019-01-21T01:16:59.559Z,54.18
2019-01-21T01:19:26.843Z,54.27
2019-01-21T01:21:54.377Z,51.73
2019-01-21T01:24:21.892Z,50.08
2019-01-21T01:26:49.358Z,60.10
2019-01-21T01:29:16.783Z,58.28
2019-01-21T01:31:44.306Z,50.20
2019-01-21T01:34:11.772Z,56.18
2019-01-21T01:36:39.386Z,55.85
2019-01-21T01:39:06.888Z,55.80
2019-01-21T01:41:34.308Z,56.35
2019-01-21T01:44:01.871Z,55.88
2019-01-21T01:46:29.796Z,60.52
2019-01-21T01:48:58.032Z,55.78
2019-01-21T01:51:25.451Z,54.00
2019-01-21T01:53:52.892Z,56.20
2019-01-21T01:56:20.404Z,62.93
2019-01-21T01:58:47.977Z,54.08
2019-01-21T02:01:15.802Z,61.50
2019-01-21T02:03:43.574Z,61.30
2019-01-21T02:06:11.059Z,63.55
2019-01-21T02:08:38.487Z,61.90
2019-01-21T02:11:06.687Z,57.58
2019-01-21T02:13:35.384Z,59.85
2019-01-21T02:16:02.999Z,64.90
2019-01-21T02:18:30.734Z,59.90
2019-01-21T02:21:00.891Z,60.23
2019-01-21T02:23:34.168Z,58.17
2019-01-21T02:26:03.278Z,51.58
2019-01-21T02:28:48.305Z,59.70
2019-01-21T02:31:54.215Z,56.08
2019-01-21T02:35:06.167Z,54.53
2019-01-21T02:38:05.218Z,54.23
2019-01-21T02:40:48.672Z,58.80
2019-01-21T02:43:54.019Z,53.60
2019-01-21T02:46:53.283Z,51.20
2019-01-21T02:49:54.457Z,54.20
2019-01-21T02:52:50.856Z,55.50
2019-01-21T02:56:01.678Z,58.08
2019-01-21T02:58:42.419Z,54.38
2019-01-21T03:02:05.260Z,54.38
2019-01-21T03:05:09.668Z,58.23
2019-01-21T03:07:48.931Z,61.28
2019-01-21T03:10:47.833Z,50.63
2019-01-21T03:13:39.623Z,47.08
2019-01-21T03:16:32.892Z,59.55
2019-01-21T03:19:26.362Z,56.55
2019-01-21T03:22:49.471Z,52.98
2019-01-21T03:25:42.139Z,48.63
2019-01-21T03:29:06.788Z,55.20
2019-01-21T03:32:08.880Z,51.25
2019-01-21T03:35:18.233Z,52.45
2019-01-21T03:38:36.692Z,57.17
2019-01-21T03:41:46.670Z,51.60
2019-01-21T03:45:07.087Z,57.10
2019-01-21T03:47:39.886Z,62.23
2019-01-21T03:50:45.139Z,55.83
2019-01-21T03:54:03.035Z,66.07
2019-01-21T03:57:04.486Z,65.62
2019-01-21T03:59:57.495Z,58.50
2019-01-21T04:03:16.456Z,60.15
2019-01-21T04:06:42.798Z,53.65
2019-01-21T04:09:38.520Z,56.63
2019-01-21T04:12:44.884Z,55.78
2019-01-21T04:15:54.639Z,55.70
2019-01-21T04:18:55.638Z,60.28
2019-01-21T04:21:55.095Z,51.98
2019-01-21T04:25:16.570Z,63.33
2019-01-21T04:28:24.867Z,61.75
2019-01-21T04:31:32.777Z,58.15
2019-01-21T04:34:48.145Z,59.65
2019-01-21T04:37:39.824Z,61.48
2019-01-21T04:40:20.736Z,63.98
2019-01-21T04:43:29.141Z,59.30
2019-01-21T04:46:24.183Z,58.90
2019-01-21T04:49:26.666Z,60.25
2019-01-21T04:52:18.441Z,59.63
2019-01-21T04:55:23.806Z,64.27
2019-01-21T04:58:20.495Z,59.48
2019-01-21T05:01:37.911Z,66.50
2019-01-21T05:04:24.347Z,66.92
2019-01-21T05:07:28.006Z,61.48
2019-01-21T05:10:41.553Z,62.00
2019-01-21T05:13:45.747Z,66.50
2019-01-21T05:17:07.737Z,54.70
2019-01-21T05:20:21.408Z,61.60
2019-01-21T05:23:09.511Z,72.65
2019-01-21T05:26:25.122Z,68.15
2019-01-21T05:29:38.208Z,64.03
2019-01-21T05:32:30.726Z,67.80
2019-01-21T05:35:26.224Z,58.80
2019-01-21T05:38:53.412Z,63.00
2019-01-21T05:42:18.087Z,55.80
2019-01-21T05:45:00.354Z,60.67
2019-01-21T05:48:08.933Z,61.08
2019-01-21T05:51:24.304Z,61.35
2019-01-21T05:54:15.050Z,57.75
2019-01-21T05:57:16.196Z,76.15
2019-01-21T06:00:22.574Z,61.92
2019-01-21T06:03:27.557Z,57.10
2019-01-21T06:06:17.801Z,63.63
2019-01-21T06:09:05.750Z,64.50
2019-01-21T06:11:54.248Z,55.60
2019-01-21T06:14:51.859Z,56.70
2019-01-21T06:17:45.230Z,66.28
2019-01-21T06:20:51.840Z,62.03
2019-01-21T06:23:39.204Z,56.02
2019-01-21T06:26:51.774Z,57.43
2019-01-21T06:29:29.263Z,64.03
2019-01-21T06:32:21.673Z,56.28
2019-01-21T06:35:26.209Z,62.33
2019-01-21T06:38:32.279Z,68.22
2019-01-21T06:41:23.555Z,54.00
2019-01-21T06:44:19.559Z,62.03
2019-01-21T06:47:26.641Z,61.40
2019-01-21T06:50:08.875Z,61.60
2019-01-21T06:53:05.956Z,64.65
2019-01-21T06:56:08.489Z,51.95
2019-01-21T06:59:26.621Z,56.55
2019-01-21T07:02:35.292Z,60.30
2019-01-21T07:05:22.487Z,55.48
2019-01-21T07:08:27.947Z,57.38
2019-01-21T07:11:52.587Z,62.75
2019-01-21T07:15:03.907Z,60.45
2019-01-21T07:18:12.680Z,65.00
2019-01-21T07:20:51.795Z,57.67
2019-01-21T07:24:12.255Z,65.05
2019-01-21T07:27:20.345Z,60.75
2019-01-21T07:30:28.920Z,66.90
2019-01-21T07:33:32.870Z,62.23
2019-01-21T07:36:42.838Z,67.87
2019-01-21T07:39:41.280Z,65.15
2019-01-21T07:42:48.427Z,70.05
2019-01-21T07:46:00.979Z,69.37
2019-01-21T07:48:52.499Z,53.55
2019-01-21T07:52:04.695Z,59.65
2019-01-21T07:54:50.659Z,55.92
2019-01-21T07:57:51.824Z,58.45
2019-01-21T08:01:19.145Z,52.58
2019-01-21T08:04:21.810Z,67.05
2019-01-21T08:07:10.999Z,67.12
2019-01-21T08:10:12.741Z,55.30
2019-01-21T08:13:18.092Z,57.17
2019-01-21T08:16:24.962Z,67.42
2019-01-21T08:19:28.339Z,73.57
2019-01-21T08:22:23.154Z,66.02
2019-01-21T08:25:26.110Z,68.40
2019-01-21T08:28:21.184Z,54.60
2019-01-21T08:31:26.203Z,65.85
2019-01-21T08:34:25.367Z,64.27
2019-01-21T08:37:11.158Z,69.80
2019-01-21T08:40:17.671Z,61.23
2019-01-21T08:43:32.027Z,61.73
2019-01-21T08:46:35.314Z,63.55
2019-01-21T08:49:50.475Z,68.60
2019-01-21T08:53:03.178Z,57.90
2019-01-21T08:56:05.695Z,63.50
2019-01-21T08:59:29.587Z,66.90
2019-01-21T09:02:53.648Z,72.55
2019-01-21T09:06:05.499Z,68.80
2019-01-21T09:09:26.690Z,65.17
2019-01-21T09:12:29.951Z,68.60
2019-01-21T09:15:26.654Z,58.30
2019-01-21T09:18:17.591Z,61.42
2019-01-21T09:21:42.208Z,62.00
2019-01-21T09:24:44.152Z,59.65
2019-01-21T09:27:40.065Z,56.13
2019-01-21T09:30:27.294Z,55.67
2019-01-21T09:33:52.091Z,55.65
2019-01-21T09:36:41.516Z,66.67
2019-01-21T09:39:49.694Z,62.98
2019-01-21T09:42:39.043Z,54.27
2019-01-21T09:45:56.006Z,57.43
2019-01-21T09:48:22.492Z,59.50
2019-01-21T09:50:50.431Z,51.88
2019-01-21T09:53:18.108Z,64.45
2019-01-21T09:55:49.158Z,58.68
2019-01-21T09:58:21.928Z,50.90
2019-01-21T10:00:49.430Z,52.95
2019-01-21T10:03:17.515Z,58.35
2019-01-21T10:05:46.363Z,50.95
2019-01-21T10:08:47.983Z,57.98
2019-01-21T10:11:57.503Z,51.20
2019-01-21T10:14:42.228Z,59.18
2019-01-21T10:17:53.693Z,51.65
2019-01-21T10:21:06.626Z,52.35
2019-01-21T10:23:46.302Z,54.58
2019-01-21T10:26:57.794Z,57.65
2019-01-21T10:29:34.277Z,55.63
2019-01-21T10:32:21.555Z,60.03
2019-01-21T10:35:25.827Z,58.50
2019-01-21T10:38:45.288Z,48.92
2019-01-21T10:41:56.904Z,53.30
2019-01-21T10:44:58.935Z,48.78
2019-01-21T10:47:44.719Z,50.23
2019-01-21T10:50:27.829Z,53.23
2019-01-21T10:53:25.882Z,51.65
2019-01-21T10:56:37.051Z,51.25
2019-01-21T10:59:48.858Z,45.30
2019-01-21T11:02:47.535Z,43.45
2019-01-21T11:05:43.452Z,44.15
2019-01-21T11:08:40.469Z,41.98
2019-01-21T11:11:54.400Z,44.20
2019-01-21T11:14:48.192Z,43.33
2019-01-21T11:18:00.532Z,42.75
2019-01-21T11:20:50.288Z,43.28
2019-01-21T11:23:41.625Z,42.43
2019-01-21T11:26:35.681Z,35.52
2019-01-21T11:29:43.919Z,43.43
2019-01-21T11:32:52.756Z,35.08
2019-01-21T11:35:49.852Z,39.03
2019-01-21T11:38:43.897Z,36.70
2019-01-21T11:41:55.233Z,37.70
2019-01-21T11:44:48.203Z,35.37
2019-01-21T11:47:43.820Z,40.00
2019-01-21T11:50:59.166Z,38.13
2019-01-21T11:53:54.411Z,31.20
2019-01-21T11:56:39.418Z,37.07
2019-01-21T11:59:43.956Z,34.10
2019-01-21T12:02:26.958Z,34.20
2019-01-21T12:05:21.116Z,33.50
2019-01-21T12:08:12.250Z,34.03
2019-01-21T12:10:57.722Z,37.43
2019-01-21T12:14:18.080Z,35.80
2019-01-21T12:17:20.353Z,36.10
2019-01-21T12:20:19.748Z,33.67
2019-01-21T12:23:28.931Z,34.87
2019-01-21T12:26:05.453Z,30.80
2019-01-21T12:28:49.027Z,32.93
2019-01-21T12:31:48.716Z,28.20
2019-01-21T12:34:39.751Z,31.13
2019-01-21T12:37:33.589Z,34.43
2019-01-21T12:40:38.682Z,35.23
2019-01-21T12:43:43.655Z,28.27
2019-01-21T12:46:46.945Z,31.60
2019-01-21T12:50:02.434Z,31.20
2019-01-21T12:52:44.288Z,32.10
2019-01-21T12:55:38.122Z,30.87
2019-01-21T12:58:32.227Z,31.73
2019-01-21T13:01:41.443Z,33.83
2019-01-21T13:04:56.885Z,37.70
2019-01-21T13:07:52.272Z,32.83
2019-01-21T13:11:17.382Z,33.00
2019-01-21T13:14:29.180Z,30.60
2019-01-21T13:17:33.972Z,30.87
2019-01-21T13:20:55.570Z,30.50
2019-01-21T13:23:51.326Z,31.30
2019-01-21T13:26:47.923Z,29.23
2019-01-21T13:29:41.035Z,32.10
2019-01-21T13:32:56.648Z,33.90
2019-01-21T13:35:46.603Z,28.70
2019-01-21T13:39:09.994Z,31.33
2019-01-21T13:42:11.357Z,29.80
2019-01-21T13:45:16.978Z,28.73
2019-01-21T13:48:16.186Z,27.20
2019-01-21T13:50:56.069Z,28.00
2019-01-21T13:54:03.802Z,30.20
2019-01-21T13:57:09.747Z,34.07
2019-01-21T14:00:25.050Z,27.40
2019-01-21T14:03:29.351Z,31.40
2019-01-21T14:06:44.422Z,31.10
2019-01-21T14:09:34.736Z,28.07
2019-01-21T14:12:14.425Z,28.00
2019-01-21T14:15:09.865Z,32.13
2019-01-21T14:18:33.344Z,28.33
2019-01-21T14:21:50.297Z,28.93
2019-01-21T14:25:06.241Z,26.27
2019-01-21T14:28:02.583Z,25.90
2019-01-21T14:31:30.644Z,27.10
2019-01-21T14:34:18.601Z,26.97
2019-01-21T14:37:22.165Z,30.57
2019-01-21T14:40:03.503Z,28.47
2019-01-21T14:43:27.994Z,26.70
2019-01-21T14:46:40.825Z,27.17
2019-01-21T14:49:31.122Z,27.13
2019-01-21T14:52:52.193Z,32.20
2019-01-21T14:55:57.131Z,28.10
2019-01-21T14:58:55.278Z,26.20
2019-01-21T15:01:51.648Z,26.50
2019-01-21T15:04:49.398Z,27.60
2019-01-21T15:07:59.146Z,31.40
2019-01-21T15:11:12.135Z,28.97
2019-01-21T15:14:16.928Z,29.53
2019-01-21T15:17:17.689Z,27.47
2019-01-21T15:20:04.391Z,26.40
2019-01-21T15:23:26.142Z,25.20
2019-01-21T15:26:03.509Z,31.30
2019-01-21T15:29:02.579Z,25.87
2019-01-21T15:31:56.851Z,27.03
2019-01-21T15:34:56.861Z,27.87
2019-01-21T15:37:47.350Z,26.80
2019-01-21T15:41:05.627Z,29.77
2019-01-21T15:44:20.521Z,27.43
2019-01-21T15:48:00.521Z,28.13
2019-01-21T15:50:47.109Z,28.63
2019-01-21T15:53:34.807Z,28.20
2019-01-21T15:56:11.512Z,26.80
2019-01-21T15:59:13.343Z,32.27
2019-01-21T16:01:55.822Z,29.07
2019-01-21T16:05:16.812Z,32.13
2019-01-21T16:07:54.730Z,31.83
2019-01-21T16:11:00.902Z,28.07
2019-01-21T16:13:52.860Z,33.40
2019-01-21T16:16:45.056Z,29.90
2019-01-21T16:19:21.424Z,34.40
2019-01-21T16:22:33.426Z,29.37
2019-01-21T16:25:40.950Z,32.80
2019-01-21T16:28:20.723Z,29.47
2019-01-21T16:30:59.426Z,27.03
2019-01-21T16:34:12.782Z,34.67
2019-01-21T16:36:56.531Z,30.90
2019-01-21T16:40:04.813Z,33.07
2019-01-21T16:42:31.406Z,26.47
2019-01-21T16:44:58.887Z,32.67
2019-01-21T16:47:26.721Z,27.60
2019-01-21T16:49:54.473Z,32.00
2019-01-21T16:52:22.152Z,29.70
2019-01-21T16:54:49.478Z,31.97
2019-01-21T16:57:17.007Z,29.40
2019-01-21T16:59:44.502Z,29.33
2019-01-21T17:02:12.226Z,27.30
2019-01-21T17:04:39.728Z,30.20
2019-01-21T17:07:07.303Z,28.50
2019-01-21T17:09:34.967Z,26.70
2019-01-21T17:12:02.833Z,26.67
2019-01-21T17:14:30.319Z,28.90
2019-01-21T17:16:57.797Z,29.00
2019-01-21T17:19:25.205Z,36.50
2019-01-21T17:21:52.771Z,35.37
2019-01-21T17:24:20.374Z,30.80
2019-01-21T17:26:47.950Z,28.50
2019-01-21T17:29:15.449Z,32.53
2019-01-21T17:31:42.899Z,30.80
2019-01-21T17:34:10.341Z,31.10
2019-01-21T17:36:37.964Z,32.37
2019-01-21T17:39:07.486Z,29.40
2019-01-21T17:41:35.170Z,27.27
2019-01-21T17:44:03.013Z,29.53
2019-01-21T17:46:30.506Z,24.40
2019-01-21T17:48:58.539Z,33.20
2019-01-21T17:51:26.168Z,28.10
2019-01-21T17:53:53.614Z,32.13
2019-01-21T17:56:21.278Z,31.70
2019-01-21T17:58:48.906Z,31.20
2019-01-21T18:01:16.654Z,31.07
2019-01-21T18:03:47.127Z,32.37
2019-01-21T18:06:14.664Z,30.03
2019-01-21T18:08:42.767Z,28.67
2019-01-21T18:11:12.636Z,33.23
2019-01-21T18:13:40.250Z,35.30
2019-01-21T18:16:11.585Z,31.80
2019-01-21T18:18:40.119Z,31.80
2019-01-21T18:21:07.770Z,31.73
2019-01-21T18:23:35.257Z,35.03
2019-01-21T18:26:02.703Z,27.90
2019-01-21T18:28:30.239Z,34.13
2019-01-21T18:30:57.825Z,36.37
2019-01-21T18:33:26.670Z,30.50
2019-01-21T18:35:53.962Z,34.47
2019-01-21T18:38:21.590Z,38.17
2019-01-21T18:40:48.978Z,31.47
2019-01-21T18:43:16.458Z,33.77
2019-01-21T18:45:44.022Z,34.83
2019-01-21T18:48:11.429Z,34.33
2019-01-21T18:50:38.954Z,36.90
2019-01-21T18:53:06.375Z,33.20
2019-01-21T18:55:33.907Z,36.47
2019-01-21T18:58:01.271Z,32.97
2019-01-21T19:00:30.238Z,37.10
2019-01-21T19:02:57.834Z,38.70
2019-01-21T19:05:25.638Z,32.73
2019-01-21T19:07:53.791Z,36.70
2019-01-21T19:10:21.662Z,40.30
2019-01-21T19:12:49.961Z,40.23
2019-01-21T19:15:22.774Z,39.73
2019-01-21T19:17:50.403Z,41.97
2019-01-21T19:20:18.033Z,44.13
2019-01-21T19:22:45.675Z,45.37
2019-01-21T19:25:13.248Z,45.20
2019-01-21T19:27:41.038Z,44.73
2019-01-21T19:30:12.380Z,43.23
2019-01-21T19:32:39.665Z,33.97
2019-01-21T19:35:08.594Z,39.70
2019-01-21T19:37:36.203Z,34.10
2019-01-21T19:40:05.287Z,34.53
2019-01-21T19:42:32.908Z,38.80
2019-01-21T19:45:00.640Z,31.30
2019-01-21T19:47:28.417Z,33.43
2019-01-21T19:49:55.850Z,35.33
2019-01-21T19:52:23.305Z,39.90
2019-01-21T19:54:51.959Z,31.20
2019-01-21T19:57:22.811Z,34.90
2019-01-21T19:59:50.614Z,35.37
2019-01-21T20:02:18.030Z,39.00
2019-01-21T20:04:45.571Z,33.00
2019-01-21T20:07:12.988Z,33.50
2019-01-21T20:09:40.465Z,36.80
2019-01-21T20:12:07.855Z,33.57
2019-01-21T20:14:35.346Z,38.30
2019-01-21T20:17:02.953Z,38.20
2019-01-21T20:19:30.470Z,33.13
2019-01-21T20:21:57.962Z,34.23
2019-01-21T20:24:26.463Z,35.20
2019-01-21T20:26:53.860Z,35.17
2019-01-21T20:29:21.369Z,37.07
2019-01-21T20:31:48.766Z,36.60
2019-01-21T20:34:16.453Z,38.03
2019-01-21T20:36:43.927Z,32.70
2019-01-21T20:39:11.649Z,38.33
2019-01-21T20:41:39.293Z,35.60
2019-01-21T20:44:06.843Z,36.97
2019-01-21T20:46:34.558Z,39.30
2019-01-21T20:49:02.060Z,37.50
2019-01-21T20:51:29.621Z,37.60
2019-01-21T20:53:57.222Z,38.70
2019-01-21T20:56:24.719Z,38.00
2019-01-21T20:58:52.378Z,41.43
2019-01-21T21:01:19.912Z,38.60
2019-01-21T21:03:47.539Z,37.43
2019-01-21T21:06:15.135Z,33.30
2019-01-21T21:08:42.800Z,33.63
2019-01-21T21:11:10.390Z,34.20
2019-01-21T21:13:38.884Z,38.30
2019-01-21T21:16:06.508Z,39.90
2019-01-21T21:18:34.155Z,38.60
2019-01-21T21:21:01.873Z,37.27
2019-01-21T21:23:29.630Z,38.43
2019-01-21T21:25:57.266Z,34.43
2019-01-21T21:28:24.840Z,38.70
2019-01-21T21:30:52.554Z,38.50
2019-01-21T21:33:20.226Z,39.07
2019-01-21T21:35:47.914Z,35.27
2019-01-21T21:38:16.853Z,34.57
2019-01-21T21:40:44.917Z,36.57
2019-01-21T21:43:15.192Z,32.97
2019-01-21T21:45:43.022Z,39.67
2019-01-21T21:48:10.615Z,37.83
2019-01-21T21:50:38.244Z,38.30
2019-01-21T21:53:05.821Z,34.63
2019-01-21T21:55:33.551Z,37.50
2019-01-21T21:58:03.699Z,37.93
2019-01-21T22:00:31.336Z,33.73
2019-01-21T22:02:59.372Z,35.00
2019-01-21T22:05:27.233Z,38.57
2019-01-21T22:07:54.977Z,36.27
2019-01-21T22:10:27.407Z,39.60
2019-01-21T22:12:55.165Z,37.00
2019-01-21T22:15:24.825Z,41.00
2019-01-21T22:17:52.593Z,36.07
2019-01-21T22:20:21.616Z,40.60
2019-01-21T22:22:49.283Z,38.80
2019-01-21T22:25:17.657Z,37.70
2019-01-21T22:27:45.239Z,39.13
2019-01-21T22:30:15.069Z,38.63
2019-01-21T22:32:42.592Z,34.00
2019-01-21T22:35:13.671Z,33.40
2019-01-21T22:37:41.176Z,37.70
2019-01-21T22:40:11.340Z,34.97
2019-01-21T22:42:38.829Z,33.30
2019-01-21T22:45:09.059Z,35.83
2019-01-21T22:47:36.702Z,37.73
2019-01-21T22:50:05.359Z,33.27
2019-01-21T22:52:32.963Z,37.07
2019-01-21T22:55:00.556Z,34.50
2019-01-21T22:57:28.114Z,37.37
2019-01-21T22:59:55.766Z,36.83
2019-01-21T23:02:23.382Z,37.97
2019-01-21T23:04:50.790Z,36.87
2019-01-21T23:07:18.262Z,38.20
2019-01-21T23:09:45.881Z,37.00
2019-01-21T23:12:13.490Z,34.93
2019-01-21T23:14:41.159Z,39.10
2019-01-21T23:17:09.770Z,35.97
2019-01-21T23:19:37.263Z,35.90
2019-01-21T23:22:05.083Z,38.23
2019-01-21T23:24:32.460Z,35.20
2019-01-21T23:26:59.858Z,35.37
2019-01-21T23:29:27.214Z,35.57
2019-01-21T23:31:55.011Z,33.50
2019-01-21T23:34:22.613Z,39.30
2019-01-21T23:36:51.233Z,37.90
2019-01-21T23:39:20.192Z,33.23
2019-01-21T23:41:48.076Z,32.77
2019-01-21T23:44:15.629Z,34.10
2019-01-21T23:46:43.100Z,37.57
2019-01-21T23:49:10.653Z,35.47
2019-01-21T23:51:38.027Z,34.80
2019-01-21T23:54:05.830Z,31.80
2019-01-21T23:56:33.639Z,33.20
2019-01-21T23:59:01.294Z,32.80
